NCAR-RAP Real-Time Weather Data

Output produced by METARs form (23 January 2018  15:48 UTC)
found at http://weather.rap.ucar.edu/surface/
 
RJOK 231100Z 31007KT 9999 FEW030 03/M04 Q1015
RJOK 231000Z 26011KT 9999 FEW030 05/M04 Q1015
RJOK 230900Z 26011KT 9999 FEW030 05/M03 Q1014
RJOK 230800Z 25011KT 9999 FEW035 07/M02 Q1013
RJOK 230700Z 33006KT 280V030 9999 FEW030 BKN035 08/M02 Q1013
RJOK 230600Z 27013KT 9999 FEW030 BKN035 08/M00 Q1012
RJOK 230500Z 25016KT 9999 FEW025 BKN040 10/M01 Q1011
RJOK 230400Z 27014KT 9999 FEW030 SCT040 11/01 Q1012
RJOK 230300Z 25013KT 9999 FEW030 BKN060 10/01 Q1012
RJOK 230200Z 26012KT 9999 FEW030 11/00 Q1012
RJOK 230100Z 33004KT 290V010 9999 FEW025 08/03 Q1013
RJOK 230000Z 36003KT 320V050 9999 FEW005 04/02 Q1013
RJOK 222300Z 34007KT 310V010 9999 FEW010 02/M00 Q1013
RJOK 222200Z 35007KT 9999 FEW010 SCT060 02/M01 Q1013
RJOK 222110Z 35007KT 9999 FEW002 SCT050 02/M00 Q1013 RMK 1ST002 3SC050 A2991
RJOK 221100Z 35008KT 9999 FEW007 05/M01 Q1011
RJOK 221000Z 35011KT 9999 FEW007 05/M00 Q1010
RJOK 220900Z 36013KT 9999 FEW005 SCT060 05/M00 Q1010
RJOK 220800Z 36011KT 9999 -SHRA FEW002 BKN035 BKN050 06/02 Q1009
RJOK 220700Z 34007KT 9999 -SHRA FEW002 SCT025 BKN040 06/04 Q1009
RJOK 220631Z 33008KT 9999 SHRA FEW002 SCT025 BKN040 06/04 Q1009 RMK 1ST002 3CU025 5CU040 A2980
RJOK 220600Z 33010KT 9999 -SHRA FEW002 SCT025 BKN035 06/04 Q1008
RJOK 220500Z 36007KT 9999 -SHRA FEW002 BKN035 BKN050 05/03 Q1008
RJOK 220412Z 34007KT 8000 -SHRA FEW002 SCT020 BKN025 05/03 Q1010 RMK 1ST002 3CU020 5CU025 A2982
RJOK 220400Z 34007KT 6000 SHRA FEW002 SCT020 BKN035 05/03 Q1010
RJOK 220300Z 36007KT 6000 SHRA FEW003 SCT015 BKN030 05/02 Q1011
RJOK 220200Z 01005KT 7000 SHRA FEW003 SCT015 BKN030 05/02 Q1013
RJOK 220100Z 01010KT 8000 SHRA FEW015 SCT020 BKN030 05/03 Q1014
RJOK 220044Z 35008KT 9000 SHRA FEW015 SCT020 BKN035 05/02 Q1015 RMK 1CU015 4CU020 6SC035 A2998
RJOK 220000Z 34010KT 9999 -RA FEW025 BKN040 06/01 Q1014
RJOK 212300Z 33009KT 9999 -RA FEW025 BKN050 06/01 Q1014
RJOK 212200Z 33007KT 9999 -RA FEW025 BKN050 BKN090 06/00 Q1014
RJOK 212110Z 34007KT 9999 FEW025 SCT080 BKN110 07/M01 Q1014 RMK 1CU025 4AC080 7AC110 A2995
RJOK 211100Z 33011KT 9999 FEW040 BKN/// 09/M02 Q1020
RJOK 211000Z 34011KT 9999 FEW040 BKN/// 09/M02 Q1020
RJOK 210900Z 35009KT 9999 FEW040 BKN/// 09/M03 Q1019
RJOK 210800Z 35012KT 9999 FEW040 BKN/// 11/M04 Q1018
RJOK 210700Z 36013KT 9999 FEW035 SCT/// 12/M05 Q1017
RJOK 210600Z 01018KT 9999 FEW035 13/M05 Q1017
RJOK 210500Z 35017KT 9999 FEW035 13/M04 Q1017
RJOK 210400Z 36013KT 9999 FEW035 14/M04 Q1017